createdAt,value
2018-02-10T00:02:26.280Z,15.23
2018-02-10T00:04:54.510Z,16.90
2018-02-10T00:07:22.117Z,15.13
2018-02-10T00:09:50.391Z,15.40
2018-02-10T00:12:18.640Z,16.50
2018-02-10T00:14:46.111Z,15.70
2018-02-10T00:17:14.680Z,16.13
2018-02-10T00:19:42.924Z,15.07
2018-02-10T00:22:10.397Z,15.17
2018-02-10T00:24:37.872Z,17.17
2018-02-10T00:27:06.873Z,16.60
2018-02-10T00:29:35.236Z,16.70
2018-02-10T00:32:02.815Z,16.60
2018-02-10T00:34:31.049Z,16.87
2018-02-10T00:36:58.517Z,15.57
2018-02-10T00:39:26.006Z,16.17
2018-02-10T00:41:54.241Z,17.20
2018-02-10T00:44:21.716Z,17.97
2018-02-10T00:46:49.275Z,17.30
2018-02-10T00:49:17.600Z,17.17
2018-02-10T00:51:45.081Z,16.80
2018-02-10T00:54:12.572Z,17.10
2018-02-10T00:56:40.033Z,18.50
2018-02-10T00:59:07.582Z,15.50
2018-02-10T01:01:35.204Z,16.87
2018-02-10T01:04:02.663Z,17.30
2018-02-10T01:06:30.144Z,18.40
2018-02-10T01:08:57.604Z,17.80
2018-02-10T01:11:25.072Z,17.73
2018-02-10T01:13:52.553Z,17.60
2018-02-10T01:16:20.913Z,18.30
2018-02-10T01:18:48.384Z,17.67
2018-02-10T01:21:16.744Z,18.10
2018-02-10T01:23:44.984Z,16.80
2018-02-10T01:26:12.450Z,17.77
2018-02-10T01:28:39.909Z,17.47
2018-02-10T01:31:07.381Z,17.13
2018-02-10T01:33:34.950Z,16.73
2018-02-10T01:36:02.409Z,18.40
2018-02-10T01:38:29.964Z,20.40
2018-02-10T01:40:57.438Z,16.83
2018-02-10T01:43:25.668Z,17.13
2018-02-10T01:45:53.140Z,16.80
2018-02-10T01:48:20.616Z,17.33
2018-02-10T01:50:48.080Z,17.80
2018-02-10T01:53:16.345Z,18.10
2018-02-10T01:55:43.824Z,16.73
2018-02-10T01:58:12.058Z,17.40
2018-02-10T02:00:39.698Z,17.80
2018-02-10T02:03:07.297Z,17.70
2018-02-10T02:05:34.776Z,17.93
2018-02-10T02:08:03.008Z,17.10
2018-02-10T02:10:30.491Z,17.57
2018-02-10T02:12:57.956Z,17.20
2018-02-10T02:15:26.206Z,17.10
2018-02-10T02:17:53.681Z,16.87
2018-02-10T02:20:21.941Z,17.77
2018-02-10T02:22:49.410Z,17.40
2018-02-10T02:25:17.640Z,18.50
2018-02-10T02:27:45.122Z,17.33
2018-02-10T02:30:12.588Z,18.27
2018-02-10T02:32:40.069Z,19.40
2018-02-10T02:35:08.295Z,20.40
2018-02-10T02:37:35.781Z,18.27
2018-02-10T02:40:03.237Z,18.50
2018-02-10T02:42:31.323Z,18.37
2018-02-10T02:44:59.612Z,17.57
2018-02-10T02:47:27.871Z,18.67
2018-02-10T02:49:55.328Z,16.97
2018-02-10T02:52:22.801Z,17.70
2018-02-10T02:54:51.041Z,17.67
2018-02-10T02:57:18.510Z,18.53
2018-02-10T02:59:45.993Z,17.50
2018-02-10T03:02:14.225Z,15.90
2018-02-10T03:04:41.704Z,16.90
2018-02-10T03:07:09.172Z,17.00
2018-02-10T03:09:37.430Z,16.93
2018-02-10T03:12:04.917Z,17.13
2018-02-10T03:14:32.400Z,16.67
2018-02-10T03:16:59.860Z,16.00
2018-02-10T03:19:27.453Z,15.50
2018-02-10T03:21:54.920Z,16.37
2018-02-10T03:24:22.410Z,16.83
2018-02-10T03:26:49.888Z,17.70
2018-02-10T03:29:17.348Z,16.97
2018-02-10T03:31:44.833Z,16.70
2018-02-10T03:34:12.421Z,17.10
2018-02-10T03:36:40.655Z,16.33
2018-02-10T03:39:08.120Z,17.80
2018-02-10T03:41:35.704Z,17.97
2018-02-10T03:44:03.168Z,19.13
2018-02-10T03:46:31.522Z,20.20
2018-02-10T03:48:58.982Z,18.17
2018-02-10T03:51:26.500Z,23.87
2018-02-10T03:53:53.965Z,23.50
2018-02-10T03:56:21.510Z,23.43
2018-02-10T03:58:48.994Z,22.90
2018-02-10T04:01:16.460Z,24.43
2018-02-10T04:03:43.933Z,23.43
2018-02-10T04:06:11.397Z,22.97
2018-02-10T04:08:38.928Z,22.23
2018-02-10T04:11:06.400Z,20.23
2018-02-10T04:13:33.880Z,21.40
2018-02-10T04:16:02.108Z,21.70
2018-02-10T04:18:29.589Z,19.07
2018-02-10T04:20:57.829Z,21.97
2018-02-10T04:23:25.301Z,19.03
2018-02-10T04:25:52.761Z,19.67
2018-02-10T04:28:20.428Z,21.13
2018-02-10T04:30:47.933Z,20.07
2018-02-10T04:33:16.209Z,19.70
2018-02-10T04:35:44.650Z,20.40
2018-02-10T04:38:12.120Z,20.07
2018-02-10T04:40:39.581Z,20.23
2018-02-10T04:43:07.054Z,21.87
2018-02-10T04:45:35.301Z,21.17
2018-02-10T04:48:02.764Z,21.13
2018-02-10T04:50:30.237Z,20.60
2018-02-10T04:52:58.480Z,19.57
2018-02-10T04:55:25.953Z,18.93
2018-02-10T04:57:53.420Z,21.03
2018-02-10T05:00:21.669Z,19.43
2018-02-10T05:02:49.134Z,20.73
2018-02-10T05:05:16.608Z,20.40
2018-02-10T05:07:44.853Z,20.90
2018-02-10T05:10:12.328Z,21.40
2018-02-10T05:12:39.826Z,20.17
2018-02-10T05:15:07.281Z,22.13
2018-02-10T05:17:34.766Z,21.17
2018-02-10T05:20:02.236Z,20.33
2018-02-10T05:22:29.720Z,21.23
2018-02-10T05:24:57.957Z,21.67
2018-02-10T05:27:25.425Z,21.17
2018-02-10T05:29:52.909Z,21.43
2018-02-10T05:32:20.428Z,19.30
2018-02-10T05:34:47.988Z,19.43
2018-02-10T05:37:15.496Z,21.27
2018-02-10T05:39:42.937Z,19.90
2018-02-10T05:42:10.396Z,20.60
2018-02-10T05:44:37.860Z,19.77
2018-02-10T05:47:06.109Z,18.60
2018-02-10T05:49:33.584Z,18.67
2018-02-10T05:52:01.050Z,20.03
2018-02-10T05:54:29.305Z,18.67
2018-02-10T05:56:57.768Z,18.57
2018-02-10T05:59:25.362Z,19.60
2018-02-10T06:01:52.937Z,17.57
2018-02-10T06:04:21.188Z,18.73
2018-02-10T06:06:48.660Z,18.80
2018-02-10T06:09:16.896Z,19.67
2018-02-10T06:11:44.476Z,19.63
2018-02-10T06:14:11.937Z,18.80
2018-02-10T06:16:39.429Z,17.40
2018-02-10T06:19:06.912Z,18.30
2018-02-10T06:21:34.376Z,17.47
2018-02-10T06:24:01.854Z,17.50
2018-02-10T06:26:29.313Z,19.10
2018-02-10T06:28:56.802Z,16.83
2018-02-10T06:31:25.026Z,18.63
2018-02-10T06:33:52.508Z,18.03
2018-02-10T06:36:19.968Z,16.93
2018-02-10T06:38:47.633Z,17.47
2018-02-10T06:41:15.088Z,18.10
2018-02-10T06:43:42.560Z,18.10
2018-02-10T06:46:10.797Z,17.60
2018-02-10T06:48:38.370Z,15.77
2018-02-10T06:51:05.840Z,17.00
2018-02-10T06:53:33.312Z,15.57
2018-02-10T06:56:01.871Z,16.70
2018-02-10T06:58:29.341Z,16.07
2018-02-10T07:00:56.817Z,16.27
2018-02-10T07:03:25.054Z,17.00
2018-02-10T07:05:52.549Z,17.37
2018-02-10T07:08:20.784Z,17.50
2018-02-10T07:10:48.345Z,16.97
2018-02-10T07:13:16.021Z,17.93
2018-02-10T07:15:43.500Z,16.17
2018-02-10T07:18:11.729Z,15.73
2018-02-10T07:20:39.208Z,17.10
2018-02-10T07:23:06.686Z,16.20
2018-02-10T07:25:34.904Z,16.80
2018-02-10T07:28:03.021Z,15.77
2018-02-10T07:30:30.489Z,16.00
2018-02-10T07:32:58.728Z,16.00
2018-02-10T07:35:26.221Z,16.27
2018-02-10T07:37:54.447Z,16.63
2018-02-10T07:40:22.025Z,17.07
2018-02-10T07:42:49.509Z,16.57
2018-02-10T07:45:17.740Z,15.40
2018-02-10T07:47:45.213Z,16.27
2018-02-10T07:50:12.680Z,16.97
2018-02-10T07:52:40.178Z,16.00
2018-02-10T07:55:07.649Z,15.47
2018-02-10T07:57:35.129Z,15.10
2018-02-10T08:00:02.612Z,19.47
2018-02-10T08:02:30.108Z,18.33
2018-02-10T08:04:57.563Z,17.53
2018-02-10T08:07:25.041Z,16.87
2018-02-10T08:09:52.513Z,16.50
2018-02-10T08:12:20.157Z,16.23
2018-02-10T08:14:47.637Z,15.60
2018-02-10T08:17:15.107Z,17.10
2018-02-10T08:19:42.612Z,15.47
2018-02-10T08:22:10.061Z,16.70
2018-02-10T08:24:37.539Z,16.60
2018-02-10T08:27:05.009Z,15.33
2018-02-10T08:29:32.478Z,15.70
2018-02-10T08:31:59.997Z,15.80
2018-02-10T08:34:27.470Z,16.47
2018-02-10T08:36:55.022Z,15.57
2018-02-10T08:39:22.506Z,14.67
2018-02-10T08:41:49.985Z,15.20
2018-02-10T08:44:17.474Z,14.80
2018-02-10T08:46:45.006Z,15.27
2018-02-10T08:49:12.505Z,16.50
2018-02-10T08:51:39.981Z,16.00
2018-02-10T08:54:07.604Z,16.60
2018-02-10T08:56:35.974Z,16.27
2018-02-10T08:59:04.213Z,16.90
2018-02-10T09:01:32.006Z,16.50
2018-02-10T09:03:59.435Z,16.00
2018-02-10T09:06:27.145Z,17.20
2018-02-10T09:08:55.395Z,16.63
2018-02-10T09:11:22.918Z,15.40
2018-02-10T09:13:50.520Z,15.57
2018-02-10T09:16:18.754Z,15.00
2018-02-10T09:18:46.257Z,14.50
2018-02-10T09:21:14.504Z,15.93
2018-02-10T09:23:41.990Z,14.67
2018-02-10T09:26:10.227Z,15.63
2018-02-10T09:28:37.718Z,15.07
2018-02-10T09:31:05.953Z,16.93
2018-02-10T09:33:33.438Z,14.90
2018-02-10T09:36:01.696Z,15.00
2018-02-10T09:38:29.351Z,16.27
2018-02-10T09:40:57.009Z,14.47
2018-02-10T09:43:24.499Z,14.80
2018-02-10T09:45:51.988Z,14.60
2018-02-10T09:48:19.487Z,14.50
2018-02-10T09:50:46.977Z,15.33
2018-02-10T09:53:15.248Z,15.80
2018-02-10T09:55:43.537Z,15.63
2018-02-10T09:58:11.091Z,14.27
2018-02-10T10:00:39.361Z,16.10
2018-02-10T10:03:07.712Z,15.70
2018-02-10T10:05:35.191Z,15.47
2018-02-10T10:08:02.670Z,14.50
2018-02-10T10:10:30.372Z,14.50
2018-02-10T10:12:57.985Z,14.63
2018-02-10T10:15:26.388Z,14.67
2018-02-10T10:17:53.882Z,14.10
2018-02-10T10:20:21.340Z,13.30
2018-02-10T10:22:48.842Z,13.97
2018-02-10T10:25:17.178Z,15.17
2018-02-10T10:27:44.786Z,13.90
2018-02-10T10:30:12.241Z,14.80
2018-02-10T10:32:39.730Z,12.80
2018-02-10T10:35:07.199Z,14.27
2018-02-10T10:37:34.742Z,13.90
2018-02-10T10:40:02.222Z,15.07
2018-02-10T10:42:30.617Z,13.37
2018-02-10T10:44:58.091Z,13.90
2018-02-10T10:47:26.320Z,14.10
2018-02-10T10:49:53.809Z,12.33
2018-02-10T10:52:21.287Z,12.67
2018-02-10T10:54:49.545Z,12.93
2018-02-10T10:57:17.021Z,14.40
2018-02-10T10:59:45.287Z,13.70
2018-02-10T11:02:13.520Z,13.30
2018-02-10T11:04:40.984Z,13.73
2018-02-10T11:07:08.459Z,13.13
2018-02-10T11:09:36.807Z,14.53
2018-02-10T11:14:38.434Z,14.03
2018-02-10T11:17:05.895Z,12.73
2018-02-10T11:19:34.300Z,12.53
2018-02-10T11:22:01.776Z,11.70
2018-02-10T11:24:29.252Z,12.50
2018-02-10T11:26:57.466Z,12.70
2018-02-10T11:29:25.695Z,14.10
2018-02-10T11:31:53.158Z,11.20
2018-02-10T11:34:21.253Z,13.80
2018-02-10T11:36:49.497Z,13.47
2018-02-10T11:39:16.972Z,14.77
2018-02-10T11:41:44.564Z,12.67
2018-02-10T11:44:12.024Z,13.00
2018-02-10T11:46:39.548Z,12.57
2018-02-10T11:49:07.017Z,14.83
2018-02-10T11:51:35.282Z,13.17
2018-02-10T11:54:02.753Z,12.33
2018-02-10T11:56:31.169Z,12.73
2018-02-10T11:58:58.764Z,12.00
2018-02-10T12:01:26.261Z,11.97
2018-02-10T12:03:53.854Z,11.50
2018-02-10T12:06:21.308Z,13.00
2018-02-10T12:08:48.805Z,13.10
2018-02-10T12:11:16.284Z,13.80
2018-02-10T12:13:44.548Z,13.20
2018-02-10T12:16:12.020Z,14.33
2018-02-10T12:18:39.537Z,12.37
2018-02-10T12:21:07.072Z,14.03
2018-02-10T12:23:34.556Z,14.13
2018-02-10T12:26:02.052Z,14.50
2018-02-10T12:28:30.897Z,13.57
2018-02-10T12:30:58.373Z,13.37
2018-02-10T12:33:25.841Z,15.00
2018-02-10T12:35:53.324Z,15.90
2018-02-10T12:38:20.824Z,15.33
2018-02-10T12:40:48.282Z,14.50
2018-02-10T12:43:15.857Z,14.60
2018-02-10T12:45:43.342Z,14.67
2018-02-10T12:48:28.352Z,15.13
2018-02-10T12:50:55.838Z,14.47
2018-02-10T12:53:23.339Z,15.40
2018-02-10T12:55:51.488Z,16.07
2018-02-10T12:58:19.742Z,15.93
2018-02-10T13:00:47.900Z,16.77
2018-02-10T13:03:15.392Z,15.83
2018-02-10T13:05:43.633Z,18.57
2018-02-10T13:08:11.248Z,16.97
2018-02-10T13:10:39.478Z,17.00
2018-02-10T13:13:06.968Z,17.00
2018-02-10T13:15:35.213Z,17.50
2018-02-10T13:18:02.844Z,16.43
2018-02-10T13:20:30.324Z,16.37
2018-02-10T13:22:57.778Z,17.40
2018-02-10T13:25:25.325Z,17.07
2018-02-10T13:27:52.820Z,16.20
2018-02-10T13:30:21.142Z,16.23
2018-02-10T13:32:48.597Z,17.67
2018-02-10T13:35:16.081Z,17.17
2018-02-10T13:37:43.546Z,17.70
2018-02-10T13:40:11.037Z,17.90
2018-02-10T13:42:39.292Z,16.77
2018-02-10T13:45:07.509Z,17.27
2018-02-10T13:47:34.996Z,15.53
2018-02-10T13:50:02.588Z,18.37
2018-02-10T13:52:30.053Z,16.10
2018-02-10T13:54:58.642Z,17.13
2018-02-10T13:57:26.901Z,16.37
2018-02-10T13:59:54.499Z,16.07
2018-02-10T14:02:22.015Z,15.93
2018-02-10T14:04:49.491Z,15.70
2018-02-10T14:07:18.382Z,15.23
2018-02-10T14:09:46.625Z,14.70
2018-02-10T14:12:14.109Z,14.37
2018-02-10T14:14:42.380Z,15.67
2018-02-10T14:17:09.980Z,15.67
2018-02-10T14:19:37.447Z,15.67
2018-02-10T14:22:04.920Z,14.03
2018-02-10T14:24:32.421Z,13.70
2018-02-10T14:27:00.655Z,14.87
2018-02-10T14:29:28.305Z,13.97
2018-02-10T14:31:55.802Z,14.40
2018-02-10T14:34:23.284Z,14.70
2018-02-10T14:36:51.526Z,15.60
2018-02-10T14:39:19.024Z,17.27
2018-02-10T14:41:47.252Z,17.30
2018-02-10T14:44:14.844Z,16.40
2018-02-10T14:46:43.077Z,17.03
2018-02-10T14:49:10.554Z,18.70
2018-02-10T14:51:38.022Z,19.37
2018-02-10T14:54:06.300Z,19.33
2018-02-10T14:56:34.536Z,19.20
2018-02-10T14:59:02.016Z,20.17
2018-02-10T15:01:29.505Z,19.00
2018-02-10T15:03:57.724Z,20.00
2018-02-10T15:06:25.848Z,20.53
2018-02-10T15:08:54.319Z,20.20
2018-02-10T15:11:22.560Z,19.53
2018-02-10T15:13:50.140Z,18.50
2018-02-10T15:16:17.621Z,19.20
2018-02-10T15:18:45.869Z,19.77
2018-02-10T15:21:13.387Z,19.40
2018-02-10T15:23:40.844Z,18.60
2018-02-10T15:26:08.466Z,20.00
2018-02-10T15:28:36.723Z,18.93
2018-02-10T15:31:28.863Z,19.00
2018-02-10T15:34:08.165Z,18.50
2018-02-10T15:36:35.642Z,16.73
2018-02-10T15:39:03.113Z,18.40
2018-02-10T15:41:31.341Z,17.50
2018-02-10T15:43:58.837Z,16.43
2018-02-10T15:46:27.013Z,16.13
2018-02-10T15:48:54.495Z,15.90
2018-02-10T15:51:22.748Z,15.67
2018-02-10T15:53:51.002Z,15.80
2018-02-10T15:56:18.476Z,15.73
2018-02-10T15:58:45.956Z,13.50
2018-02-10T16:01:14.365Z,14.27
2018-02-10T16:03:41.851Z,13.67
2018-02-10T16:06:09.321Z,12.30
2018-02-10T16:08:36.793Z,11.73
2018-02-10T16:11:05.041Z,11.70
2018-02-10T16:13:32.528Z,11.60
2018-02-10T16:16:00.781Z,11.20
2018-02-10T16:18:28.270Z,10.03
2018-02-10T16:20:56.525Z,10.80
2018-02-10T16:23:23.984Z,10.43
2018-02-10T16:25:51.766Z,9.47
2018-02-10T16:28:19.985Z,9.13
2018-02-10T16:30:47.479Z,9.13
2018-02-10T16:33:14.986Z,9.33
2018-02-10T16:35:42.462Z,8.97
2018-02-10T16:38:09.956Z,8.63
2018-02-10T16:40:37.475Z,8.47
2018-02-10T16:43:05.156Z,8.80
2018-02-10T16:45:32.638Z,8.00
2018-02-10T16:48:01.612Z,7.90
2018-02-10T16:50:29.097Z,8.13
2018-02-10T16:52:57.416Z,8.40
2018-02-10T16:55:24.880Z,7.47
2018-02-10T16:57:52.397Z,8.10
2018-02-10T17:00:21.222Z,7.60
2018-02-10T17:02:48.706Z,7.10
2018-02-10T17:05:16.237Z,6.80
2018-02-10T17:07:43.712Z,7.87
2018-02-10T17:10:11.206Z,7.20
2018-02-10T17:12:39.472Z,7.00
2018-02-10T17:15:07.817Z,7.23
2018-02-10T17:17:35.323Z,6.23
2018-02-10T17:20:03.567Z,6.10
2018-02-10T17:22:31.106Z,6.87
2018-02-10T17:24:58.582Z,7.33
2018-02-10T17:27:26.036Z,6.80
2018-02-10T17:29:53.518Z,6.70
2018-02-10T17:32:21.894Z,6.47
2018-02-10T17:34:50.152Z,6.30
2018-02-10T17:37:17.687Z,6.10
2018-02-10T17:39:45.161Z,6.03
2018-02-10T17:42:12.634Z,6.53
2018-02-10T17:44:40.131Z,7.50
2018-02-10T17:47:08.521Z,6.50
2018-02-10T17:49:36.016Z,6.50
2018-02-10T17:52:03.612Z,7.40
2018-02-10T17:54:31.956Z,7.90
2018-02-10T17:56:59.433Z,7.80
2018-02-10T17:59:27.671Z,7.97
2018-02-10T18:01:55.166Z,7.90
2018-02-10T18:04:23.427Z,7.97
2018-02-10T18:06:50.901Z,7.67
2018-02-10T18:09:19.129Z,8.17
2018-02-10T18:11:46.663Z,9.00
2018-02-10T18:14:14.124Z,9.10
2018-02-10T18:16:41.642Z,7.80
2018-02-10T18:19:10.790Z,8.70
2018-02-10T18:21:38.442Z,8.67
2018-02-10T18:24:05.919Z,9.37
2018-02-10T18:26:33.387Z,9.70
2018-02-10T18:29:00.871Z,8.83
2018-02-10T18:31:29.263Z,8.67
2018-02-10T18:33:57.509Z,9.00
2018-02-10T18:36:24.984Z,8.13
2018-02-10T18:38:53.224Z,8.30
2018-02-10T18:41:21.108Z,7.57
2018-02-10T18:43:48.637Z,7.83
2018-02-10T18:46:16.182Z,7.83
2018-02-10T18:48:43.640Z,8.37
2018-02-10T18:51:11.673Z,8.20
2018-02-10T18:53:39.930Z,9.13
2018-02-10T18:56:08.543Z,9.30
2018-02-10T18:58:36.808Z,10.53
2018-02-10T19:01:05.048Z,10.50
2018-02-10T19:03:32.588Z,10.77
2018-02-10T19:06:00.048Z,9.43
2018-02-10T19:08:27.529Z,9.00
2018-02-10T19:10:55.108Z,8.53
2018-02-10T19:13:23.355Z,8.17
2018-02-10T19:15:50.833Z,8.07
2018-02-10T19:18:18.478Z,8.20
2018-02-10T19:20:45.966Z,9.37
2018-02-10T19:23:14.189Z,8.33
2018-02-10T19:25:41.684Z,7.93
2018-02-10T19:28:09.152Z,6.40
2018-02-10T19:30:37.389Z,7.90
2018-02-10T19:33:04.957Z,6.60
2018-02-10T19:35:32.421Z,6.90
2018-02-10T19:37:59.909Z,7.97
2018-02-10T19:40:28.177Z,6.90
2018-02-10T19:42:56.404Z,6.93
2018-02-10T19:45:23.868Z,6.27
2018-02-10T19:47:51.336Z,7.77
2018-02-10T19:50:18.812Z,7.60
2018-02-10T19:52:46.281Z,7.47
2018-02-10T19:55:14.517Z,9.00
2018-02-10T19:57:41.982Z,8.00
2018-02-10T20:00:09.457Z,7.50
2018-02-10T20:02:37.780Z,6.13
2018-02-10T20:05:05.326Z,6.00
2018-02-10T20:07:32.812Z,6.10
2018-02-10T20:10:00.274Z,6.00
2018-02-10T20:12:27.733Z,6.47
2018-02-10T20:14:55.209Z,6.33
2018-02-10T20:17:23.465Z,5.70
2018-02-10T20:19:50.957Z,5.67
2018-02-10T20:22:19.190Z,5.63
2018-02-10T20:24:46.657Z,6.40
2018-02-10T20:27:14.184Z,6.10
2018-02-10T20:29:41.645Z,5.80
2018-02-10T20:32:09.136Z,6.03
2018-02-10T20:34:36.597Z,5.83
2018-02-10T20:37:04.179Z,6.30
2018-02-10T20:39:32.404Z,6.20
2018-02-10T20:41:59.900Z,5.90
2018-02-10T20:44:27.356Z,5.70
2018-02-10T20:46:54.857Z,5.70
2018-02-10T20:49:22.309Z,5.40
2018-02-10T20:51:49.795Z,5.57
2018-02-10T20:54:17.256Z,5.67
2018-02-10T20:56:44.739Z,6.00
2018-02-10T20:59:12.206Z,6.73
2018-02-10T21:01:40.441Z,4.53
2018-02-10T21:04:07.989Z,5.37
2018-02-10T21:06:35.456Z,4.70
2018-02-10T21:09:02.924Z,4.97
2018-02-10T21:11:30.407Z,4.70
2018-02-10T21:13:57.871Z,5.30
2018-02-10T21:16:26.092Z,5.00
2018-02-10T21:18:53.584Z,4.37
2018-02-10T21:21:21.145Z,4.77
2018-02-10T21:23:48.614Z,4.50
2018-02-10T21:26:16.068Z,4.57
2018-02-10T21:28:43.537Z,3.80
2018-02-10T21:31:11.768Z,4.60
2018-02-10T21:33:39.236Z,4.07
2018-02-10T21:36:06.822Z,4.37
2018-02-10T21:38:34.290Z,4.90
2018-02-10T21:41:02.536Z,4.33
2018-02-10T21:43:30.011Z,4.13
2018-02-10T21:45:57.508Z,4.63
2018-02-10T21:48:24.988Z,4.57
2018-02-10T21:50:52.460Z,4.03
2018-02-10T21:53:19.897Z,4.10
2018-02-10T21:55:47.392Z,4.37
2018-02-10T21:58:15.650Z,4.40
2018-02-10T22:00:43.304Z,4.87
2018-02-10T22:03:10.788Z,5.40
2018-02-10T22:05:38.250Z,4.40
2018-02-10T22:08:06.494Z,5.10
2018-02-10T22:10:33.985Z,3.90
2018-02-10T22:13:02.480Z,4.67
2018-02-10T22:15:30.202Z,3.67
2018-02-10T22:17:57.810Z,4.67
2018-02-10T22:20:25.517Z,3.63
2018-02-10T22:22:53.025Z,3.40
2018-02-10T22:25:21.296Z,3.90
2018-02-10T22:27:49.738Z,4.30
2018-02-10T22:30:17.327Z,3.87
2018-02-10T22:32:45.665Z,4.43
2018-02-10T22:35:13.161Z,4.00
2018-02-10T22:37:40.639Z,3.57
2018-02-10T22:40:08.121Z,3.87
2018-02-10T22:42:35.581Z,3.87
2018-02-10T22:45:03.075Z,3.90
2018-02-10T22:47:30.537Z,4.00
2018-02-10T22:49:58.039Z,3.97
2018-02-10T22:52:25.516Z,3.30
2018-02-10T22:54:52.997Z,3.17
2018-02-10T22:57:21.333Z,3.90
2018-02-10T22:59:48.828Z,3.60
2018-02-10T23:02:16.367Z,3.40
2018-02-10T23:04:43.827Z,3.50
2018-02-10T23:07:11.342Z,3.97
2018-02-10T23:09:39.061Z,3.60
2018-02-10T23:12:06.644Z,3.70
2018-02-10T23:14:34.901Z,3.77
2018-02-10T23:17:02.373Z,3.33
2018-02-10T23:19:30.611Z,4.60
2018-02-10T23:21:58.085Z,4.63
2018-02-10T23:24:25.553Z,4.40
2018-02-10T23:26:53.017Z,3.40
2018-02-10T23:29:20.492Z,4.40
2018-02-10T23:31:48.727Z,4.30
2018-02-10T23:34:16.204Z,3.70
2018-02-10T23:36:43.665Z,3.50
2018-02-10T23:39:12.013Z,3.27
2018-02-10T23:41:39.529Z,3.40
2018-02-10T23:44:07.073Z,3.20
2018-02-10T23:46:35.441Z,3.73
2018-02-10T23:49:02.898Z,5.17
2018-02-10T23:51:31.468Z,4.47
2018-02-10T23:53:58.951Z,4.10
2018-02-10T23:56:27.278Z,4.63
2018-02-10T23:58:54.776Z,3.23
